Terminal Aerodrome Forecast
Issued by NWS Glasgow, MT

Home | Current Version | Previous Version | Text Only | Print | Product List | Glossary On
Versions: 1 2 3 4 5 6 7 8 9 10 11 12 13 14 15
000
FTUS45 KGGW 250054 AAB
TAFGGW
TAF AMD
KGGW 250054Z 2501/2524 28013KT 2SM -SN SCT025 BKN035
     FM250300 29008KT P6SM OVC045
     FM250900 28005KT P6SM SCT035
     FM251800 25009KT P6SM SCT130
     FM252200 22012KT P6SM BKN080=

USA.gov is the U.S. government's official web portal to all federal, state and local government web resources and services.